Time;durP1;ratioP1;P1;durP2;ratioP2;P2;SDS_P1;SDS_P2;PMS_P1;PMS_P2;Temp;Humidity;BMP_temperature;BMP_pressure;BME280_temperature;BME280_humidity;BME280_pressure;Samples;Min_cycle;Max_cycle;Signal;HPM_P1;HPM_P2
2023/12/06 00:02:04;;;;;;;;;;;;;;;;;;5096448;28;20292;-71
2023/12/06 00:04:31;;;;;;;;;;;;;;;;;;5096744;28;19953;-71
2023/12/06 00:06:57;;;;;;;;;;;;;;;;;;5096508;28;19920;-72
2023/12/06 00:09:23;;;;;;;;;;;;;;;;;;5096311;28;19908;-72
2023/12/06 00:11:49;;;;;;;;;;;;;;;;;;5096339;28;19908;-72
2023/12/06 00:14:16;;;;;;;;;;;;;;;;;;5096295;28;19912;-72
2023/12/06 00:16:42;;;;;;;;;;;;;;;;;;5096109;28;19920;-71
2023/12/06 00:19:08;;;;;;;;;;;;;;;;;;5096132;28;19908;-72
2023/12/06 00:21:34;;;;;;;;;;;;;;;;;;5095393;28;19909;-72
2023/12/06 00:24:00;;;;;;;;;;;;;;;;;;5095691;28;19912;-71
2023/12/06 00:26:27;;;;;;;;;;;;;;;;;;5096332;28;19914;-71
2023/12/06 00:28:53;;;;;;;;;;;;;;;;;;5096015;28;19928;-72
2023/12/06 00:31:19;;;;;;;;;;;;;;;;;;5095946;28;19912;-72
2023/12/06 00:33:45;;;;;;;;;;;;;;;;;;5094952;28;19981;-72
2023/12/06 00:36:12;;;;;;;;;;;;;;;;;;5095912;28;19916;-72
2023/12/06 00:38:38;;;;;;;;;;;;;;;;;;5095615;28;20362;-72
2023/12/06 00:41:04;;;;;;;;;;;;;;;;;;5095905;28;19942;-71
2023/12/06 00:43:30;;;;;;;;;;;;;;;;;;5096297;28;19916;-72
2023/12/06 00:45:56;;;;;;;;;;;;;;;;;;5095673;28;20332;-72
2023/12/06 00:48:22;;;;;;;;;;;;;;;;;;5095664;28;20372;-72
2023/12/06 00:50:49;;;;;;;;;;;;;;;;;;5095659;28;19908;-72
2023/12/06 00:53:15;;;;;;;;;;;;;;;;;;5095260;28;20388;-71
2023/12/06 00:55:41;;;;;;;;;;;;;;;;;;5095621;28;19916;-72
2023/12/06 00:58:07;;;;;;;;;;;;;;;;;;5095741;28;20369;-72
2023/12/06 01:00:33;;;;;;;;;;;;;;;;;;5095663;28;19908;-71
2023/12/06 01:02:59;;;;;;;;;;;;;;;;;;5095452;28;19931;-72
2023/12/06 01:05:26;;;;;;;;;;;;;;;;;;5095193;28;19941;-71
2023/12/06 01:07:52;;;;;;;;;;;;;;;;;;5093712;28;20343;-71
2023/12/06 01:10:18;;;;;;;;;;;;;;;;;;5093866;28;19915;-72
2023/12/06 01:12:44;;;;;;;;;;;;;;;;;;5095455;28;19915;-71
2023/12/06 01:15:10;;;;;;;;;;;;;;;;;;5095342;28;19975;-72
2023/12/06 01:17:36;;;;;;;;;;;;;;;;;;5095274;28;19916;-71
2023/12/06 01:20:03;;;;;;;;;;;;;;;;;;5095085;28;19919;-71
2023/12/06 01:22:30;;;;;;;;;;;;;;;;;;5093522;28;19914;-72
2023/12/06 01:24:56;;;;;;;;;;;;;;;;;;5094822;28;20362;-71
2023/12/06 01:27:22;;;;;;;;;;;;;;;;;;5095255;28;19908;-72
2023/12/06 01:29:48;;;;;;;;;;;;;;;;;;5094904;28;19914;-72
2023/12/06 01:32:14;;;;;;;;;;;;;;;;;;5094818;28;19960;-72
2023/12/06 01:34:40;;;;;;;;;;;;;;;;;;5094861;28;20318;-72
2023/12/06 01:37:07;;;;;;;;;;;;;;;;;;5094380;28;19922;-72
2023/12/06 01:39:33;;;;;;;;;;;;;;;;;;5094534;28;19924;-71
2023/12/06 01:41:59;;;;;;;;;;;;;;;;;;5094619;28;19908;-72
2023/12/06 01:44:26;;;;;;;;;;;;;;;;;;5094556;28;19908;-71
2023/12/06 01:46:52;;;;;;;;;;;;;;;;;;5094821;28;19961;-72
2023/12/06 01:49:18;;;;;;;;;;;;;;;;;;5094500;28;19914;-71
2023/12/06 01:51:45;;;;;;;;;;;;;;;;;;5092750;28;19914;-71
2023/12/06 01:54:11;;;;;;;;;;;;;;;;;;5094305;28;19938;-71
2023/12/06 01:56:37;;;;;;;;;;;;;;;;;;5094458;28;19920;-71
2023/12/06 01:59:03;;;;;;;;;;;;;;;;;;5094231;28;19914;-72
2023/12/06 02:01:29;;;;;;;;;;;;;;;;;;5093076;28;19908;-71
2023/12/06 02:03:56;;;;;;;;;;;;;;;;;;5094307;28;19912;-71
2023/12/06 02:06:22;;;;;;;;;;;;;;;;;;5093738;28;19933;-72
2023/12/06 02:08:48;;;;;;;;;;;;;;;;;;5094397;28;19916;-71
2023/12/06 02:11:14;;;;;;;;;;;;;;;;;;5093396;28;19915;-71
2023/12/06 02:13:40;;;;;;;;;;;;;;;;;;5094081;28;19923;-71
2023/12/06 02:16:06;;;;;;;;;;;;;;;;;;5094060;28;19916;-72
2023/12/06 02:18:33;;;;;;;;;;;;;;;;;;5093882;28;19908;-71
2023/12/06 02:20:59;;;;;;;;;;;;;;;;;;5093604;28;19997;-72
2023/12/06 02:23:25;;;;;;;;;;;;;;;;;;5093409;28;19914;-71
2023/12/06 02:25:51;;;;;;;;;;;;;;;;;;5092882;28;19915;-72
2023/12/06 02:28:18;;;;;;;;;;;;;;;;;;5094299;28;19915;-72
2023/12/06 02:30:44;;;;;;;;;;;;;;;;;;5093675;28;20315;-72
2023/12/06 02:33:10;;;;;;;;;;;;;;;;;;5126704;27;19919;-72
2023/12/06 02:35:36;;;;;;;;;;;;;;;;;;5093186;28;19969;-71
2023/12/06 02:38:03;;;;;;;;;;;;;;;;;;5093447;28;19908;-71
2023/12/06 02:40:29;;;;;;;;;;;;;;;;;;5093695;28;20387;-71
2023/12/06 02:42:55;;;;;;;;;;;;;;;;;;5093537;28;20380;-71
2023/12/06 02:45:21;;;;;;;;;;;;;;;;;;5093647;28;19919;-71
2023/12/06 02:47:47;;;;;;;;;;;;;;;;;;5093390;28;19912;-72
2023/12/06 02:50:13;;;;;;;;;;;;;;;;;;5093090;28;19908;-71
2023/12/06 02:52:40;;;;;;;;;;;;;;;;;;5093374;28;20299;-72
2023/12/06 02:55:06;;;;;;;;;;;;;;;;;;5093312;28;19916;-72
2023/12/06 02:57:32;;;;;;;;;;;;;;;;;;5093392;28;19919;-71
2023/12/06 02:59:58;;;;;;;;;;;;;;;;;;5093212;28;19914;-71
2023/12/06 03:02:24;;;;;;;;;;;;;;;;;;5093253;28;19908;-71
2023/12/06 03:04:50;;;;;;;;;;;;;;;;;;5092896;28;19916;-71
2023/12/06 03:07:17;;;;;;;;;;;;;;;;;;5092939;28;19927;-72
2023/12/06 03:09:43;;;;;;;;;;;;;;;;;;5093141;28;19920;-71
2023/12/06 03:12:09;;;;;;;;;;;;;;;;;;5093143;28;20276;-71
2023/12/06 03:14:35;;;;;;;;;;;;;;;;;;5092141;28;19915;-71
2023/12/06 03:17:01;;;;;;;;;;;;;;;;;;5093112;28;19916;-72
2023/12/06 03:19:28;;;;;;;;;;;;;;;;;;5092732;28;20356;-71
2023/12/06 03:21:54;;;;;;;;;;;;;;;;;;5093080;28;19937;-71
2023/12/06 03:24:20;;;;;;;;;;;;;;;;;;5093180;28;20066;-71
2023/12/06 03:26:46;;;;;;;;;;;;;;;;;;5093321;28;19908;-71
2023/12/06 03:29:12;;;;;;;;;;;;;;;;;;5092948;28;19915;-71
2023/12/06 03:31:40;;;;;;;;;;;;;;;;;;5093251;28;19934;-71
2023/12/06 03:34:06;;;;;;;;;;;;;;;;;;5094011;28;19908;-71
2023/12/06 03:36:32;;;;;;;;;;;;;;;;;;5097206;28;19965;-71
2023/12/06 03:38:58;;;;;;;;;;;;;;;;;;5096926;28;19918;-71
2023/12/06 03:41:24;;;;;;;;;;;;;;;;;;5097220;28;19908;-71
2023/12/06 03:43:51;;;;;;;;;;;;;;;;;;5097122;28;19916;-71
2023/12/06 03:46:17;;;;;;;;;;;;;;;;;;5097163;28;19908;-71
2023/12/06 03:48:43;;;;;;;;;;;;;;;;;;5096411;28;19908;-72
2023/12/06 03:51:09;;;;;;;;;;;;;;;;;;5096695;28;19915;-71
2023/12/06 03:53:36;;;;;;;;;;;;;;;;;;5096713;28;19914;-71
2023/12/06 03:56:02;;;;;;;;;;;;;;;;;;5096569;28;19924;-72
2023/12/06 03:58:28;;;;;;;;;;;;;;;;;;5096712;28;19908;-71
2023/12/06 04:00:55;;;;;;;;;;;;;;;;;;5096531;28;19961;-71
2023/12/06 04:03:22;;;;;;;;;;;;;;;;;;5096213;28;19919;-71
2023/12/06 04:05:48;;;;;;;;;;;;;;;;;;5096311;28;19937;-71
2023/12/06 04:08:14;;;;;;;;;;;;;;;;;;5096472;28;20357;-71
2023/12/06 04:10:40;;;;;;;;;;;;;;;;;;5095464;28;19912;-71
2023/12/06 04:13:06;;;;;;;;;;;;;;;;;;5096303;28;20377;-71
2023/12/06 04:15:32;;;;;;;;;;;;;;;;;;5096264;28;19912;-71
2023/12/06 04:17:59;;;;;;;;;;;;;;;;;;5095918;28;20295;-71
2023/12/06 04:20:25;;;;;;;;;;;;;;;;;;5096517;28;19919;-71
2023/12/06 04:22:51;;;;;;;;;;;;;;;;;;5096284;28;19908;-72
2023/12/06 04:25:17;;;;;;;;;;;;;;;;;;5096085;27;20276;-71
2023/12/06 04:27:43;;;;;;;;;;;;;;;;;;5128828;27;19908;-71
2023/12/06 04:30:10;;;;;;;;;;;;;;;;;;5095891;28;19969;-71
2023/12/06 04:32:36;;;;;;;;;;;;;;;;;;5095930;28;19914;-71
2023/12/06 04:35:02;;;;;;;;;;;;;;;;;;5096050;28;19908;-71
2023/12/06 04:37:29;;;;;;;;;;;;;;;;;;5095934;28;19916;-71
2023/12/06 04:39:55;;;;;;;;;;;;;;;;;;5095903;28;19923;-71
2023/12/06 04:42:21;;;;;;;;;;;;;;;;;;5095963;28;19916;-71
2023/12/06 04:44:48;;;;;;;;;;;;;;;;;;5094512;28;19908;-71
2023/12/06 04:47:14;;;;;;;;;;;;;;;;;;5094964;28;19934;-71
2023/12/06 04:49:40;;;;;;;;;;;;;;;;;;5095901;28;19914;-72
2023/12/06 04:52:06;;;;;;;;;;;;;;;;;;5095927;28;19964;-71
2023/12/06 04:54:32;;;;;;;;;;;;;;;;;;5095473;28;19908;-72
2023/12/06 04:56:59;;;;;;;;;;;;;;;;;;5095457;28;20277;-72
2023/12/06 04:59:25;;;;;;;;;;;;;;;;;;5095067;28;20388;-71
2023/12/06 05:01:51;;;;;;;;;;;;;;;;;;5095771;28;19912;-71
2023/12/06 05:04:17;;;;;;;;;;;;;;;;;;5095651;28;19912;-71
2023/12/06 05:06:43;;;;;;;;;;;;;;;;;;5095021;28;19950;-71
2023/12/06 05:09:10;;;;;;;;;;;;;;;;;;5095227;28;19917;-71
2023/12/06 05:11:36;;;;;;;;;;;;;;;;;;5095609;28;19908;-71
2023/12/06 05:14:02;;;;;;;;;;;;;;;;;;5095091;28;20433;-71
2023/12/06 05:16:28;;;;;;;;;;;;;;;;;;5095231;28;19938;-72
2023/12/06 05:18:55;;;;;;;;;;;;;;;;;;5095259;28;19908;-72
2023/12/06 05:21:21;;;;;;;;;;;;;;;;;;5095109;28;19916;-71
2023/12/06 05:23:48;;;;;;;;;;;;;;;;;;5093870;28;19922;-71
2023/12/06 05:26:14;;;;;;;;;;;;;;;;;;5127680;27;19908;-72
2023/12/06 05:28:40;;;;;;;;;;;;;;;;;;5094828;28;19927;-72
2023/12/06 05:31:07;;;;;;;;;;;;;;;;;;5094765;28;19908;-71
2023/12/06 05:33:33;;;;;;;;;;;;;;;;;;5094877;28;20291;-71
2023/12/06 05:35:59;;;;;;;;;;;;;;;;;;5093957;28;19916;-71
2023/12/06 05:38:25;;;;;;;;;;;;;;;;;;5094501;28;19912;-71
2023/12/06 05:40:51;;;;;;;;;;;;;;;;;;5094994;28;19912;-71
2023/12/06 05:43:17;;;;;;;;;;;;;;;;;;5094187;28;19908;-71
2023/12/06 05:45:44;;;;;;;;;;;;;;;;;;5094568;28;19908;-72
2023/12/06 05:48:10;;;;;;;;;;;;;;;;;;5094873;28;19908;-71
2023/12/06 05:50:36;;;;;;;;;;;;;;;;;;5094345;28;19938;-72
2023/12/06 05:53:03;;;;;;;;;;;;;;;;;;5094602;28;19908;-71
2023/12/06 05:55:30;;;;;;;;;;;;;;;;;;5094192;28;19916;-71
2023/12/06 05:57:56;;;;;;;;;;;;;;;;;;5091769;28;19912;-72
2023/12/06 06:00:24;;;;;;;;;;;;;;;;;;5094358;28;19908;-71
2023/12/06 06:02:52;;;;;;;;;;;;;;;;;;5094162;28;19916;-71
2023/12/06 06:05:18;;;;;;;;;;;;;;;;;;5094330;28;19912;-71
2023/12/06 06:07:44;;;;;;;;;;;;;;;;;;5094375;28;19920;-71
2023/12/06 06:10:10;;;;;;;;;;;;;;;;;;5094145;28;19912;-71
2023/12/06 06:12:37;;;;;;;;;;;;;;;;;;5093742;28;19912;-71
2023/12/06 06:15:03;;;;;;;;;;;;;;;;;;5093838;28;20462;-72
2023/12/06 06:17:29;;;;;;;;;;;;;;;;;;5094043;28;20337;-71
2023/12/06 06:19:55;;;;;;;;;;;;;;;;;;5093902;28;20437;-71
2023/12/06 06:22:21;;;;;;;;;;;;;;;;;;5093806;28;20291;-71
2023/12/06 06:24:47;;;;;;;;;;;;;;;;;;5093787;28;19908;-71
2023/12/06 06:27:14;;;;;;;;;;;;;;;;;;5093738;28;19908;-72
2023/12/06 06:29:40;;;;;;;;;;;;;;;;;;5093784;28;19912;-72
2023/12/06 06:32:06;;;;;;;;;;;;;;;;;;5093961;28;19909;-71
2023/12/06 06:34:32;;;;;;;;;;;;;;;;;;5093947;28;19915;-71
2023/12/06 06:36:58;;;;;;;;;;;;;;;;;;5093548;28;19916;-72
2023/12/06 06:39:25;;;;;;;;;;;;;;;;;;5093427;28;20506;-71
2023/12/06 06:41:51;;;;;;;;;;;;;;;;;;5093262;28;19948;-71
2023/12/06 06:44:17;;;;;;;;;;;;;;;;;;5093476;28;19914;-71
2023/12/06 06:46:44;;;;;;;;;;;;;;;;;;5093468;28;19912;-71
2023/12/06 06:49:10;;;;;;;;;;;;;;;;;;5093366;28;19908;-71
2023/12/06 06:51:36;;;;;;;;;;;;;;;;;;5093630;28;20426;-71
2023/12/06 06:54:02;;;;;;;;;;;;;;;;;;5093528;28;19912;-71
2023/12/06 06:56:28;;;;;;;;;;;;;;;;;;5092916;28;19916;-71
2023/12/06 06:58:55;;;;;;;;;;;;;;;;;;5093447;28;19908;-71
2023/12/06 07:01:21;;;;;;;;;;;;;;;;;;5092736;28;19912;-71
2023/12/06 07:03:48;;;;;;;;;;;;;;;;;;5093114;28;19935;-72
2023/12/06 07:06:14;;;;;;;;;;;;;;;;;;5093158;28;20002;-72
2023/12/06 07:08:40;;;;;;;;;;;;;;;;;;5092824;28;19915;-72
2023/12/06 07:11:06;;;;;;;;;;;;;;;;;;5093232;28;19908;-71
2023/12/06 07:13:32;;;;;;;;;;;;;;;;;;5093218;28;19908;-71
2023/12/06 07:15:58;;;;;;;;;;;;;;;;;;5088565;28;19920;-72
2023/12/06 07:18:25;;;;;;;;;;;;;;;;;;5089608;28;19917;-70
2023/12/06 07:20:51;;;;;;;;;;;;;;;;;;5090378;28;19915;-72
2023/12/06 07:23:18;;;;;;;;;;;;;;;;;;5092123;28;20373;-71
2023/12/06 07:25:44;;;;;;;;;;;;;;;;;;5092165;28;20387;-71
2023/12/06 07:28:10;;;;;;;;;;;;;;;;;;5092766;28;19922;-71
2023/12/06 07:30:36;;;;;;;;;;;;;;;;;;5090528;28;19914;-72
2023/12/06 07:33:02;;;;;;;;;;;;;;;;;;5089725;28;19919;-72
2023/12/06 07:35:28;;;;;;;;;;;;;;;;;;5088471;28;19920;-72
2023/12/06 07:37:55;;;;;;;;;;;;;;;;;;5089541;28;19912;-71
2023/12/06 07:40:21;;;;;;;;;;;;;;;;;;5087947;28;19916;-70
2023/12/06 07:42:47;;;;;;;;;;;;;;;;;;5078796;28;19913;-70
2023/12/06 07:45:13;;;;;;;;;;;;;;;;;;5076597;28;19920;-73
2023/12/06 07:47:39;;;;;;;;;;;;;;;;;;5086625;28;19922;-71
2023/12/06 07:50:05;;;;;;;;;;;;;;;;;;5091867;28;19908;-71
2023/12/06 07:52:33;;;;;;;;;;;;;;;;;;5090784;28;19912;-76
2023/12/06 07:54:59;;;;;;;;;;;;;;;;;;5088440;28;19912;-74
2023/12/06 07:57:28;;;;;;;;;;;;;;;;;;5091655;28;20436;-72
2023/12/06 07:59:55;;;;;;;;;;;;;;;;;;5080507;28;19921;-71
2023/12/06 08:02:22;;;;;;;;;;;;;;;;;;5091638;28;19916;-77
2023/12/06 08:04:48;;;;;;;;;;;;;;;;;;5090667;28;19916;-70
2023/12/06 08:07:14;;;;;;;;;;;;;;;;;;5085017;28;19920;-71
2023/12/06 08:09:40;;;;;;;;;;;;;;;;;;5088501;28;19922;-74
2023/12/06 08:12:07;;;;;;;;;;;;;;;;;;5091125;28;19912;-73
2023/12/06 08:14:33;;;;;;;;;;;;;;;;;;5087288;28;19912;-75
2023/12/06 08:16:59;;;;;;;;;;;;;;;;;;5088361;28;19920;-71
2023/12/06 08:19:26;;;;;;;;;;;;;;;;;;5084694;28;19924;-73
2023/12/06 08:21:52;;;;;;;;;;;;;;;;;;5090005;28;19912;-73
2023/12/06 08:24:18;;;;;;;;;;;;;;;;;;5094621;28;19908;-73
2023/12/06 08:26:44;;;;;;;;;;;;;;;;;;5095542;28;19912;-73
2023/12/06 08:29:11;;;;;;;;;;;;;;;;;;5094722;28;20377;-73
2023/12/06 08:31:40;;;;;;;;;;;;;;;;;;5090323;28;19934;-73
2023/12/06 08:34:06;;;;;;;;;;;;;;;;;;5090224;28;19916;-73
2023/12/06 08:36:32;;;;;;;;;;;;;;;;;;5093496;28;19922;-73
2023/12/06 08:38:58;;;;;;;;;;;;;;;;;;5092698;28;19920;-73
2023/12/06 08:41:24;;;;;;;;;;;;;;;;;;5093628;28;19912;-76
2023/12/06 08:43:50;;;;;;;;;;;;;;;;;;5093877;28;19908;-75
2023/12/06 08:46:18;;;;;;;;;;;;;;;;;;5092949;28;19919;-71
2023/12/06 08:48:44;;;;;;;;;;;;;;;;;;5091141;28;19912;-73
2023/12/06 08:51:10;;;;;;;;;;;;;;;;;;5093426;28;19912;-71
2023/12/06 08:53:36;;;;;;;;;;;;;;;;;;5093208;28;20617;-72
2023/12/06 08:56:02;;;;;;;;;;;;;;;;;;5091606;28;19922;-75
2023/12/06 08:58:29;;;;;;;;;;;;;;;;;;5092365;28;20372;-71
2023/12/06 09:00:55;;;;;;;;;;;;;;;;;;5092209;28;19912;-71
2023/12/06 09:03:21;;;;;;;;;;;;;;;;;;5092609;28;19919;-71
2023/12/06 09:05:48;;;;;;;;;;;;;;;;;;5092754;28;20446;-71
2023/12/06 09:08:15;;;;;;;;;;;;;;;;;;5090377;28;19934;-71
2023/12/06 09:10:41;;;;;;;;;;;;;;;;;;5116521;27;20392;-71
2023/12/06 09:13:07;;;;;;;;;;;;;;;;;;5091285;28;19918;-71
2023/12/06 09:15:33;;;;;;;;;;;;;;;;;;5091576;28;19920;-71
2023/12/06 09:18:00;;;;;;;;;;;;;;;;;;5091306;28;19912;-71
2023/12/06 09:20:26;;;;;;;;;;;;;;;;;;5092516;28;19922;-70
2023/12/06 09:22:52;;;;;;;;;;;;;;;;;;5090724;28;19919;-71
2023/12/06 09:25:18;;;;;;;;;;;;;;;;;;5095824;28;19912;-72
2023/12/06 09:27:44;;;;;;;;;;;;;;;;;;5113910;28;20448;-70
2023/12/06 09:30:11;;;;;;;;;;;;;;;;;;5101387;28;19920;-71
2023/12/06 09:32:37;;;;;;;;;;;;;;;;;;5092719;28;19946;-71
2023/12/06 09:35:03;;;;;;;;;;;;;;;;;;5093206;28;19916;-71
2023/12/06 09:37:29;;;;;;;;;;;;;;;;;;5093442;28;19920;-71
2023/12/06 09:39:55;;;;;;;;;;;;;;;;;;5092928;28;19908;-71
2023/12/06 09:42:22;;;;;;;;;;;;;;;;;;5084632;28;19915;-72
2023/12/06 09:44:48;;;;;;;;;;;;;;;;;;5079258;28;19918;-71
2023/12/06 09:47:14;;;;;;;;;;;;;;;;;;5092986;28;19916;-72
2023/12/06 09:49:40;;;;;;;;;;;;;;;;;;5088231;28;19916;-71
2023/12/06 09:52:07;;;;;;;;;;;;;;;;;;5092691;28;19913;-70
2023/12/06 09:54:33;;;;;;;;;;;;;;;;;;5092726;28;19908;-70
2023/12/06 09:56:59;;;;;;;;;;;;;;;;;;5091041;28;19920;-71
2023/12/06 09:59:25;;;;;;;;;;;;;;;;;;5081132;28;20384;-71
2023/12/06 10:01:52;;;;;;;;;;;;;;;;;;5086162;28;19919;-70
2023/12/06 10:04:19;;;;;;;;;;;;;;;;;;5090679;28;19908;-70
2023/12/06 10:06:45;;;;;;;;;;;;;;;;;;5092341;28;19935;-70
2023/12/06 10:09:11;;;;;;;;;;;;;;;;;;5090389;28;19920;-71
2023/12/06 10:11:37;;;;;;;;;;;;;;;;;;5092517;28;19916;-71
2023/12/06 10:14:03;;;;;;;;;;;;;;;;;;5090528;28;19912;-71
2023/12/06 10:16:30;;;;;;;;;;;;;;;;;;5089297;28;19942;-72
2023/12/06 10:18:56;;;;;;;;;;;;;;;;;;5071383;28;19908;-71
2023/12/06 10:21:22;;;;;;;;;;;;;;;;;;5088110;28;19922;-71
2023/12/06 10:23:49;;;;;;;;;;;;;;;;;;5091786;28;19908;-71
2023/12/06 10:26:15;;;;;;;;;;;;;;;;;;5083663;28;19913;-71
2023/12/06 10:28:41;;;;;;;;;;;;;;;;;;5080363;28;19926;-72
2023/12/06 10:31:08;;;;;;;;;;;;;;;;;;5071584;28;19920;-72
2023/12/06 10:33:34;;;;;;;;;;;;;;;;;;5088244;28;19912;-70
2023/12/06 10:36:00;;;;;;;;;;;;;;;;;;5092028;28;19931;-71
2023/12/06 10:38:26;;;;;;;;;;;;;;;;;;5088269;28;19926;-70
2023/12/06 10:40:53;;;;;;;;;;;;;;;;;;5088363;28;19912;-75
2023/12/06 10:43:19;;;;;;;;;;;;;;;;;;5091329;28;19912;-75
2023/12/06 10:45:45;;;;;;;;;;;;;;;;;;5088351;28;20299;-74
2023/12/06 10:48:11;;;;;;;;;;;;;;;;;;5085676;28;19920;-74
2023/12/06 10:50:37;;;;;;;;;;;;;;;;;;5087276;28;19916;-73
2023/12/06 10:53:04;;;;;;;;;;;;;;;;;;5087788;28;19973;-77
2023/12/06 10:55:33;;;;;;;;;;;;;;;;;;5090404;28;19912;-73
2023/12/06 10:57:59;;;;;;;;;;;;;;;;;;5091154;28;20403;-75
2023/12/06 11:00:26;;;;;;;;;;;;;;;;;;5091746;28;19932;-74
2023/12/06 11:02:52;;;;;;;;;;;;;;;;;;5090372;28;20368;-75
2023/12/06 11:05:19;;;;;;;;;;;;;;;;;;5090533;28;19908;-78
2023/12/06 11:07:45;;;;;;;;;;;;;;;;;;5089016;28;19916;-75
2023/12/06 11:10:12;;;;;;;;;;;;;;;;;;5104757;28;19912;-76
2023/12/06 11:12:38;;;;;;;;;;;;;;;;;;5071706;28;19908;-76
2023/12/06 11:15:04;;;;;;;;;;;;;;;;;;5071814;28;19913;-75
2023/12/06 11:17:31;;;;;;;;;;;;;;;;;;5071570;28;19938;-74
2023/12/06 11:19:57;;;;;;;;;;;;;;;;;;5104223;28;20309;-74
2023/12/06 11:22:23;;;;;;;;;;;;;;;;;;5074703;28;19909;-73
2023/12/06 11:24:49;;;;;;;;;;;;;;;;;;5091339;28;19920;-73
2023/12/06 11:27:16;;;;;;;;;;;;;;;;;;5091759;28;19919;-73
2023/12/06 11:29:42;;;;;;;;;;;;;;;;;;5091808;28;19923;-73
2023/12/06 11:32:08;;;;;;;;;;;;;;;;;;5090744;27;20308;-75
2023/12/06 11:34:34;;;;;;;;;;;;;;;;;;5071765;28;19913;-73
2023/12/06 11:37:03;;;;;;;;;;;;;;;;;;5071421;28;19928;-76
2023/12/06 11:39:29;;;;;;;;;;;;;;;;;;5087073;28;20293;-75
2023/12/06 11:41:55;;;;;;;;;;;;;;;;;;5087535;28;19950;-75
2023/12/06 11:44:22;;;;;;;;;;;;;;;;;;5088977;28;20311;-75
2023/12/06 11:46:48;;;;;;;;;;;;;;;;;;5091092;28;19912;-75
2023/12/06 11:49:14;;;;;;;;;;;;;;;;;;5091268;28;19912;-75
2023/12/06 11:51:40;;;;;;;;;;;;;;;;;;5091375;28;20181;-74
2023/12/06 11:54:07;;;;;;;;;;;;;;;;;;5090955;28;19912;-74
2023/12/06 11:56:33;;;;;;;;;;;;;;;;;;5093481;28;19948;-73
2023/12/06 11:59:02;;;;;;;;;;;;;;;;;;5090564;28;20373;-73
2023/12/06 12:01:28;;;;;;;;;;;;;;;;;;5074949;28;19916;-73
2023/12/06 12:03:54;;;;;;;;;;;;;;;;;;5089658;28;19916;-73
2023/12/06 12:06:23;;;;;;;;;;;;;;;;;;5094648;28;19924;-73
2023/12/06 12:08:49;;;;;;;;;;;;;;;;;;5095188;28;19919;-73
2023/12/06 12:11:16;;;;;;;;;;;;;;;;;;5093735;28;20296;-72
2023/12/06 12:13:42;;;;;;;;;;;;;;;;;;5092319;28;19916;-73
2023/12/06 12:16:08;;;;;;;;;;;;;;;;;;5092660;28;19922;-72
2023/12/06 12:18:34;;;;;;;;;;;;;;;;;;5095141;28;19916;-73
2023/12/06 12:21:00;;;;;;;;;;;;;;;;;;5094865;28;20384;-72
2023/12/06 12:23:28;;;;;;;;;;;;;;;;;;5093266;28;19912;-73
2023/12/06 12:25:54;;;;;;;;;;;;;;;;;;5094692;28;19912;-73
2023/12/06 12:28:20;;;;;;;;;;;;;;;;;;5094616;28;20295;-73
2023/12/06 12:30:46;;;;;;;;;;;;;;;;;;5094725;28;19908;-72
2023/12/06 12:33:13;;;;;;;;;;;;;;;;;;5088725;28;19908;-72
2023/12/06 12:35:39;;;;;;;;;;;;;;;;;;5074603;28;19912;-72
2023/12/06 12:38:05;;;;;;;;;;;;;;;;;;5074329;28;19909;-72
2023/12/06 12:40:32;;;;;;;;;;;;;;;;;;5074533;28;19921;-73
2023/12/06 12:42:58;;;;;;;;;;;;;;;;;;5074701;28;19912;-72
2023/12/06 12:45:26;;;;;;;;;;;;;;;;;;5074156;28;19912;-72
2023/12/06 12:47:53;;;;;;;;;;;;;;;;;;5074596;28;19915;-73
2023/12/06 12:50:19;;;;;;;;;;;;;;;;;;5075466;28;19912;-73
2023/12/06 12:52:45;;;;;;;;;;;;;;;;;;5073984;28;20308;-73
2023/12/06 12:55:12;;;;;;;;;;;;;;;;;;5074166;28;20308;-72
2023/12/06 12:57:38;;;;;;;;;;;;;;;;;;5074177;28;19916;-73
2023/12/06 13:00:05;;;;;;;;;;;;;;;;;;5073678;28;19915;-73
2023/12/06 13:02:31;;;;;;;;;;;;;;;;;;5074599;28;19908;-73
2023/12/06 13:04:57;;;;;;;;;;;;;;;;;;5089072;28;19914;-73
2023/12/06 13:07:24;;;;;;;;;;;;;;;;;;5084613;28;19931;-73
2023/12/06 13:09:50;;;;;;;;;;;;;;;;;;5074244;28;19915;-73
2023/12/06 13:12:16;;;;;;;;;;;;;;;;;;5073963;28;19957;-72
2023/12/06 13:14:42;;;;;;;;;;;;;;;;;;5073606;28;19912;-73
2023/12/06 13:17:09;;;;;;;;;;;;;;;;;;5083287;28;19916;-73
2023/12/06 13:19:36;;;;;;;;;;;;;;;;;;5073887;28;19938;-72
2023/12/06 13:22:02;;;;;;;;;;;;;;;;;;5074077;28;19908;-72
2023/12/06 13:24:28;;;;;;;;;;;;;;;;;;5078065;28;20375;-72
2023/12/06 13:26:54;;;;;;;;;;;;;;;;;;5073229;28;19951;-71
2023/12/06 13:29:21;;;;;;;;;;;;;;;;;;5081954;28;19916;-72
2023/12/06 13:31:47;;;;;;;;;;;;;;;;;;5093431;28;19914;-72
2023/12/06 13:34:13;;;;;;;;;;;;;;;;;;5093457;28;19916;-72
2023/12/06 13:36:39;;;;;;;;;;;;;;;;;;5093380;28;20433;-72
2023/12/06 13:39:06;;;;;;;;;;;;;;;;;;5093104;28;19916;-71
2023/12/06 13:41:32;;;;;;;;;;;;;;;;;;5083429;28;20178;-72
2023/12/06 13:43:58;;;;;;;;;;;;;;;;;;5077810;28;20429;-72
2023/12/06 13:46:24;;;;;;;;;;;;;;;;;;5093534;28;19913;-73
2023/12/06 13:48:50;;;;;;;;;;;;;;;;;;5093230;28;19974;-73
2023/12/06 13:51:17;;;;;;;;;;;;;;;;;;5093178;28;19912;-73
2023/12/06 13:53:43;;;;;;;;;;;;;;;;;;5092831;28;19970;-72
2023/12/06 13:56:10;;;;;;;;;;;;;;;;;;5091341;28;19916;-72
2023/12/06 13:58:36;;;;;;;;;;;;;;;;;;5084016;28;20365;-72
2023/12/06 14:01:03;;;;;;;;;;;;;;;;;;5093163;28;19952;-73
2023/12/06 14:03:29;;;;;;;;;;;;;;;;;;5092452;28;19956;-72
2023/12/06 14:05:55;;;;;;;;;;;;;;;;;;5092774;28;19920;-72
2023/12/06 14:08:24;;;;;;;;;;;;;;;;;;5092765;28;19981;-72
2023/12/06 14:10:50;;;;;;;;;;;;;;;;;;5092885;28;19980;-72
2023/12/06 14:13:17;;;;;;;;;;;;;;;;;;5077598;28;20302;-73
2023/12/06 14:15:45;;;;;;;;;;;;;;;;;;5080103;28;20364;-72
2023/12/06 14:18:13;;;;;;;;;;;;;;;;;;5091491;28;20566;-72
2023/12/06 14:20:39;;;;;;;;;;;;;;;;;;5092756;28;20288;-81
2023/12/06 14:23:05;;;;;;;;;;;;;;;;;;5087436;28;20297;-80
2023/12/06 14:25:31;;;;;;;;;;;;;;;;;;5092540;28;19957;-80
2023/12/06 14:27:58;;;;;;;;;;;;;;;;;;5092581;28;19912;-80
2023/12/06 14:30:24;;;;;;;;;;;;;;;;;;5092908;28;19908;-80
2023/12/06 14:32:50;;;;;;;;;;;;;;;;;;5107661;28;19938;-80
2023/12/06 14:35:16;;;;;;;;;;;;;;;;;;5092822;28;19979;-81
2023/12/06 14:37:43;;;;;;;;;;;;;;;;;;5092317;28;19924;-80
2023/12/06 14:40:09;;;;;;;;;;;;;;;;;;5092188;28;19908;-80
2023/12/06 14:42:35;;;;;;;;;;;;;;;;;;5093096;28;19914;-80
2023/12/06 14:45:01;;;;;;;;;;;;;;;;;;5091358;28;19915;-80
2023/12/06 14:47:27;;;;;;;;;;;;;;;;;;5092668;28;19915;-80
2023/12/06 14:49:54;;;;;;;;;;;;;;;;;;5080222;28;20357;-80
2023/12/06 14:52:20;;;;;;;;;;;;;;;;;;5104908;28;19908;-80
2023/12/06 14:54:46;;;;;;;;;;;;;;;;;;5104754;28;19913;-79
2023/12/06 14:57:13;;;;;;;;;;;;;;;;;;5072367;28;19916;-79
2023/12/06 14:59:39;;;;;;;;;;;;;;;;;;5072364;28;19912;-79
2023/12/06 15:02:05;;;;;;;;;;;;;;;;;;5072091;28;20369;-80
2023/12/06 15:04:31;;;;;;;;;;;;;;;;;;5083477;28;19908;-80
2023/12/06 15:06:58;;;;;;;;;;;;;;;;;;5091678;28;19927;-80
2023/12/06 15:09:24;;;;;;;;;;;;;;;;;;5092238;28;19938;-80
2023/12/06 15:11:50;;;;;;;;;;;;;;;;;;5092428;28;19912;-80
2023/12/06 15:14:16;;;;;;;;;;;;;;;;;;5092284;28;20365;-79
2023/12/06 15:16:43;;;;;;;;;;;;;;;;;;5092122;28;20392;-80
2023/12/06 15:19:09;;;;;;;;;;;;;;;;;;5125314;28;19912;-80
2023/12/06 15:21:35;;;;;;;;;;;;;;;;;;5092406;28;19908;-79
2023/12/06 15:24:01;;;;;;;;;;;;;;;;;;5087124;28;19917;-82
2023/12/06 15:26:27;;;;;;;;;;;;;;;;;;5092192;28;19977;-82
2023/12/06 15:28:54;;;;;;;;;;;;;;;;;;5092589;28;19912;-82
2023/12/06 15:31:20;;;;;;;;;;;;;;;;;;5094770;28;19914;-82
2023/12/06 15:33:46;;;;;;;;;;;;;;;;;;5096331;28;19913;-82
2023/12/06 15:36:13;;;;;;;;;;;;;;;;;;5129201;27;19916;-82
2023/12/06 15:38:39;;;;;;;;;;;;;;;;;;5096005;28;19916;-82
2023/12/06 15:41:05;;;;;;;;;;;;;;;;;;5095461;28;19916;-82
2023/12/06 15:43:31;;;;;;;;;;;;;;;;;;5096481;28;19914;-81
2023/12/06 15:45:58;;;;;;;;;;;;;;;;;;5096222;28;20380;-81
2023/12/06 15:48:24;;;;;;;;;;;;;;;;;;5095983;28;19908;-81
2023/12/06 15:50:50;;;;;;;;;;;;;;;;;;5096045;28;19934;-81
2023/12/06 15:53:16;;;;;;;;;;;;;;;;;;5094953;28;20292;-82
2023/12/06 15:55:42;;;;;;;;;;;;;;;;;;5095839;28;20307;-78
2023/12/06 15:58:09;;;;;;;;;;;;;;;;;;5095228;28;19908;-82
2023/12/06 16:00:35;;;;;;;;;;;;;;;;;;5092963;28;19915;-81
2023/12/06 16:03:01;;;;;;;;;;;;;;;;;;5075551;28;19928;-81
2023/12/06 16:05:27;;;;;;;;;;;;;;;;;;5094084;28;19937;-82
2023/12/06 16:07:53;;;;;;;;;;;;;;;;;;5095258;28;20369;-82
2023/12/06 16:10:19;;;;;;;;;;;;;;;;;;5095982;28;19953;-81
2023/12/06 16:12:47;;;;;;;;;;;;;;;;;;5094622;28;19946;-80
2023/12/06 16:15:13;;;;;;;;;;;;;;;;;;5080788;28;19969;-80
2023/12/06 16:17:39;;;;;;;;;;;;;;;;;;5102095;28;19927;-81
2023/12/06 16:20:05;;;;;;;;;;;;;;;;;;5075031;28;20377;-80
2023/12/06 16:22:32;;;;;;;;;;;;;;;;;;5074675;28;19991;-81
2023/12/06 16:24:58;;;;;;;;;;;;;;;;;;5094567;28;19969;-81
2023/12/06 16:27:24;;;;;;;;;;;;;;;;;;5095026;28;19945;-81
2023/12/06 16:29:50;;;;;;;;;;;;;;;;;;5128295;27;19908;-80
2023/12/06 16:32:16;;;;;;;;;;;;;;;;;;5094431;28;20300;-80
2023/12/06 16:34:43;;;;;;;;;;;;;;;;;;5095132;28;19916;-80
2023/12/06 16:37:09;;;;;;;;;;;;;;;;;;5094913;28;19914;-81
2023/12/06 16:39:35;;;;;;;;;;;;;;;;;;5094949;28;20331;-82